createdAt,value
2024-01-08T00:02:16.119Z,-5.63
2024-01-08T00:04:44.175Z,-5.62
2024-01-08T00:07:12.029Z,-5.63
2024-01-08T00:09:39.841Z,-5.62
2024-01-08T00:12:07.958Z,-5.57
2024-01-08T00:14:35.876Z,-5.49
2024-01-08T00:17:04.118Z,-5.43
2024-01-08T00:19:33.038Z,-5.43
2024-01-08T00:22:00.938Z,-5.45
2024-01-08T00:24:29.233Z,-5.51
2024-01-08T00:26:57.096Z,-5.53
2024-01-08T00:29:25.024Z,-5.50
2024-01-08T00:31:53.018Z,-5.50
2024-01-08T00:34:21.886Z,-5.57
2024-01-08T00:36:50.210Z,-5.58
2024-01-08T00:39:18.043Z,-5.66
2024-01-08T00:41:46.005Z,-5.72
2024-01-08T00:44:13.900Z,-5.72
2024-01-08T00:46:41.886Z,-5.74
2024-01-08T00:49:09.862Z,-5.76
2024-01-08T00:51:37.739Z,-5.79
2024-01-08T00:54:05.737Z,-5.85
2024-01-08T00:56:33.637Z,-5.85
2024-01-08T00:59:01.604Z,-5.78
2024-01-08T01:01:29.589Z,-5.79
2024-01-08T01:03:57.628Z,-5.75
2024-01-08T01:06:25.688Z,-5.73
2024-01-08T01:08:53.783Z,-5.85
2024-01-08T01:11:21.662Z,-5.81
2024-01-08T01:13:49.658Z,-5.85
2024-01-08T01:16:17.818Z,-5.99
2024-01-08T01:18:46.243Z,-6.04
2024-01-08T01:21:22.198Z,-6.17
2024-01-08T01:23:51.609Z,-6.26
2024-01-08T01:26:21.685Z,-6.25
2024-01-08T01:28:50.690Z,-6.19
2024-01-08T01:31:18.598Z,-6.16
2024-01-08T01:33:46.595Z,-6.14
2024-01-08T01:36:14.556Z,-6.21
2024-01-08T01:38:42.355Z,-6.22
2024-01-08T01:41:10.199Z,-6.22
2024-01-08T01:43:38.055Z,-6.25
2024-01-08T01:46:09.328Z,-6.23
2024-01-08T01:48:37.255Z,-6.16
2024-01-08T01:51:05.455Z,-6.06
2024-01-08T01:53:33.707Z,-6.02
2024-01-08T01:56:02.160Z,-6.00
2024-01-08T01:58:31.016Z,-6.05
2024-01-08T02:00:59.128Z,-6.12
2024-01-08T02:03:27.796Z,-6.19
2024-01-08T02:05:56.231Z,-6.20
2024-01-08T02:08:24.588Z,-6.18
2024-01-08T02:10:53.096Z,-6.17
2024-01-08T02:13:20.949Z,-6.19
2024-01-08T02:15:48.888Z,-6.21
2024-01-08T02:18:17.001Z,-6.18
2024-01-08T02:20:44.979Z,-6.24
2024-01-08T02:23:12.981Z,-6.25
2024-01-08T02:25:41.362Z,-6.24
2024-01-08T02:28:09.362Z,-6.24
2024-01-08T02:30:37.198Z,-6.27
2024-01-08T02:33:05.350Z,-6.31
2024-01-08T02:35:33.570Z,-6.30
2024-01-08T02:38:01.536Z,-6.30
2024-01-08T02:40:29.539Z,-6.29
2024-01-08T02:42:57.613Z,-6.19
2024-01-08T02:45:25.502Z,-6.08
2024-01-08T02:47:53.559Z,-5.99
2024-01-08T02:50:21.563Z,-5.93
2024-01-08T02:52:49.494Z,-5.88
2024-01-08T02:55:17.456Z,-5.88
2024-01-08T02:57:45.378Z,-5.92
2024-01-08T03:00:13.757Z,-5.99
2024-01-08T03:02:41.884Z,-6.00
2024-01-08T03:05:10.277Z,-6.06
2024-01-08T03:07:38.298Z,-6.13
2024-01-08T03:10:06.588Z,-6.16
2024-01-08T03:12:34.604Z,-6.17
2024-01-08T03:15:02.391Z,-6.15
2024-01-08T03:17:30.483Z,-6.10
2024-01-08T03:19:58.693Z,-6.08
2024-01-08T03:22:26.627Z,-6.08
2024-01-08T03:24:54.498Z,-6.12
2024-01-08T03:27:22.325Z,-6.14
2024-01-08T03:29:50.206Z,-6.09
2024-01-08T03:32:18.107Z,-6.03
2024-01-08T03:34:47.522Z,-6.00
2024-01-08T03:37:15.512Z,-6.09
2024-01-08T03:39:43.350Z,-6.16
2024-01-08T03:42:11.242Z,-6.10
2024-01-08T03:44:39.325Z,-6.05
2024-01-08T03:47:07.223Z,-6.21
2024-01-08T03:49:35.136Z,-6.40
2024-01-08T03:52:02.986Z,-6.49
2024-01-08T03:54:30.846Z,-6.51
2024-01-08T03:56:58.623Z,-6.52
2024-01-08T03:59:26.409Z,-6.52
2024-01-08T04:01:55.231Z,-6.48
2024-01-08T04:04:23.070Z,-6.56
2024-01-08T04:06:50.900Z,-6.56
2024-01-08T04:09:19.151Z,-6.43
2024-01-08T04:11:47.245Z,-6.44
2024-01-08T04:14:15.387Z,-6.43
2024-01-08T04:16:43.454Z,-6.41
2024-01-08T04:19:11.365Z,-6.53
2024-01-08T04:21:39.542Z,-6.63
2024-01-08T04:24:07.451Z,-6.63
2024-01-08T04:26:35.346Z,-6.58
2024-01-08T04:29:03.540Z,-6.63
2024-01-08T04:31:32.538Z,-6.63
2024-01-08T04:34:00.853Z,-6.54
2024-01-08T04:36:28.879Z,-6.50
2024-01-08T04:38:56.714Z,-6.44
2024-01-08T04:41:24.774Z,-6.49
2024-01-08T04:43:52.738Z,-6.60
2024-01-08T04:46:20.624Z,-6.72
2024-01-08T04:48:48.556Z,-6.71
2024-01-08T04:51:24.283Z,-6.61
2024-01-08T04:53:53.364Z,-6.53
2024-01-08T04:56:25.746Z,-6.54
2024-01-08T04:58:54.544Z,-6.56
2024-01-08T05:01:23.381Z,-6.48
2024-01-08T05:03:53.161Z,-6.43
2024-01-08T05:06:21.202Z,-6.49
2024-01-08T05:08:49.628Z,-6.43
2024-01-08T05:11:17.605Z,-6.45
2024-01-08T05:13:45.640Z,-6.53
2024-01-08T05:16:13.612Z,-6.54
2024-01-08T05:18:41.573Z,-6.43
2024-01-08T05:21:14.606Z,-6.40
2024-01-08T05:23:42.507Z,-6.41
2024-01-08T05:26:10.760Z,-6.56
2024-01-08T05:28:39.354Z,-6.65
2024-01-08T05:31:07.335Z,-6.65
2024-01-08T05:33:35.213Z,-6.68
2024-01-08T05:36:03.654Z,-6.53
2024-01-08T05:38:31.510Z,-6.33
2024-01-08T05:40:59.440Z,-6.12
2024-01-08T05:43:27.275Z,-6.09
2024-01-08T05:45:55.445Z,-6.06
2024-01-08T05:48:23.405Z,-6.11
2024-01-08T05:50:51.351Z,-6.13
2024-01-08T05:53:19.342Z,-6.10
2024-01-08T05:55:47.237Z,-6.04
2024-01-08T05:58:15.167Z,-6.04
2024-01-08T06:00:43.091Z,-6.14
2024-01-08T06:03:10.929Z,-6.30
2024-01-08T06:05:38.913Z,-6.35
2024-01-08T06:08:07.940Z,-6.19
2024-01-08T06:10:35.860Z,-6.16
2024-01-08T06:13:04.191Z,-6.35
2024-01-08T06:15:32.001Z,-6.46
2024-01-08T06:17:59.766Z,-6.53
2024-01-08T06:20:27.705Z,-6.75
2024-01-08T06:22:55.586Z,-6.92
2024-01-08T06:25:23.596Z,-7.03
2024-01-08T06:27:51.459Z,-7.02
2024-01-08T06:30:19.760Z,-6.97
2024-01-08T06:32:47.767Z,-7.05
2024-01-08T06:35:16.050Z,-7.15
2024-01-08T06:37:44.120Z,-7.19
2024-01-08T06:40:12.597Z,-7.21
2024-01-08T06:42:52.482Z,-7.16
2024-01-08T06:45:28.216Z,-6.96
2024-01-08T06:47:56.333Z,-6.80
2024-01-08T06:50:24.624Z,-6.64
2024-01-08T06:52:52.772Z,-6.57
2024-01-08T06:55:20.670Z,-6.65
2024-01-08T06:57:50.438Z,-6.68
2024-01-08T07:00:19.444Z,-6.69
2024-01-08T07:02:47.762Z,-6.65
2024-01-08T07:05:17.120Z,-6.62
2024-01-08T07:07:45.630Z,-6.45
2024-01-08T07:10:13.716Z,-6.32
2024-01-08T07:12:41.584Z,-6.27
2024-01-08T07:15:09.510Z,-6.19
2024-01-08T07:17:37.419Z,-6.24
2024-01-08T07:20:05.940Z,-6.28
2024-01-08T07:22:34.360Z,-6.20
2024-01-08T07:25:03.372Z,-6.20
2024-01-08T07:27:31.209Z,-6.20
2024-01-08T07:29:59.286Z,-6.31
2024-01-08T07:32:27.410Z,-6.37
2024-01-08T07:34:55.394Z,-6.37
2024-01-08T07:37:23.364Z,-6.17
2024-01-08T07:39:51.524Z,-6.12
2024-01-08T07:42:19.291Z,-6.15
2024-01-08T07:44:47.189Z,-6.16
2024-01-08T07:47:15.233Z,-6.25
2024-01-08T07:49:43.069Z,-6.29
2024-01-08T07:52:10.959Z,-6.32
2024-01-08T07:54:38.748Z,-6.31
2024-01-08T07:57:11.159Z,-6.17
2024-01-08T07:59:40.527Z,-6.12
2024-01-08T08:02:08.578Z,-6.05
2024-01-08T08:04:36.490Z,-5.94
2024-01-08T08:07:04.986Z,-5.94
2024-01-08T08:09:32.882Z,-5.88
2024-01-08T08:12:00.707Z,-5.96
2024-01-08T08:14:28.554Z,-5.85
2024-01-08T08:16:56.673Z,-5.72
2024-01-08T08:19:26.381Z,-5.76
2024-01-08T08:21:55.652Z,-5.90
2024-01-08T08:24:24.506Z,-5.91
2024-01-08T08:26:52.392Z,-5.87
2024-01-08T08:29:20.333Z,-5.90
2024-01-08T08:31:48.220Z,-5.90
2024-01-08T08:34:16.492Z,-5.93
2024-01-08T08:36:44.439Z,-5.96
2024-01-08T08:39:16.235Z,-5.93
2024-01-08T08:41:44.830Z,-6.00
2024-01-08T08:44:14.942Z,-6.01
2024-01-08T08:46:45.651Z,-6.06
2024-01-08T08:49:15.093Z,-5.92
2024-01-08T08:51:43.114Z,-5.83
2024-01-08T08:54:11.040Z,-5.82
2024-01-08T08:56:40.564Z,-5.83
2024-01-08T08:59:08.466Z,-5.83
2024-01-08T09:01:36.570Z,-5.87
2024-01-08T09:04:04.695Z,-5.81
2024-01-08T09:06:35.464Z,-5.86
2024-01-08T09:09:03.497Z,-5.91
2024-01-08T09:11:33.341Z,-5.95
2024-01-08T09:14:01.258Z,-5.93
2024-01-08T09:16:29.216Z,-5.92
2024-01-08T09:18:57.855Z,-5.90
2024-01-08T09:21:25.981Z,-5.82
2024-01-08T09:23:54.234Z,-5.75
2024-01-08T09:26:22.198Z,-5.80
2024-01-08T09:28:50.533Z,-5.86
2024-01-08T09:31:18.940Z,-5.89
2024-01-08T09:33:48.414Z,-5.83
2024-01-08T09:36:16.446Z,-5.87
2024-01-08T09:38:46.628Z,-5.57
2024-01-08T09:41:23.159Z,-5.26
2024-01-08T09:43:53.770Z,-4.94
2024-01-08T09:46:29.963Z,-4.70
2024-01-08T09:48:59.160Z,-4.56
2024-01-08T09:51:27.097Z,-4.57
2024-01-08T09:53:59.610Z,-4.47
2024-01-08T09:56:28.486Z,-4.40
2024-01-08T09:58:57.551Z,-4.54
2024-01-08T10:01:25.500Z,-4.59
2024-01-08T10:03:53.952Z,-4.29
2024-01-08T10:06:22.323Z,-4.12
2024-01-08T10:08:50.567Z,-4.16
2024-01-08T10:11:19.348Z,-4.34
2024-01-08T10:13:47.419Z,-4.46
2024-01-08T10:16:16.325Z,-4.53
2024-01-08T10:18:48.146Z,-4.29
2024-01-08T10:21:17.260Z,-3.87
2024-01-08T10:23:47.763Z,-3.53
2024-01-08T10:26:17.861Z,-3.20
2024-01-08T10:28:47.862Z,-2.89
2024-01-08T10:31:15.738Z,-2.60
2024-01-08T10:33:45.625Z,-2.26
2024-01-08T10:36:13.695Z,-2.02
2024-01-08T10:38:41.811Z,-1.82
2024-01-08T10:41:10.525Z,-1.63
2024-01-08T10:43:38.329Z,-1.45
2024-01-08T10:46:07.904Z,-1.19
2024-01-08T10:48:44.772Z,-0.93
2024-01-08T10:51:16.481Z,-0.80
2024-01-08T10:53:45.943Z,-0.78
2024-01-08T10:56:18.282Z,-0.65
2024-01-08T10:58:51.213Z,-0.54
2024-01-08T11:01:19.436Z,-0.57
2024-01-08T11:03:47.821Z,-0.47
2024-01-08T11:06:16.881Z,-0.46
2024-01-08T11:08:46.111Z,-0.29
2024-01-08T11:11:16.538Z,-0.19
2024-01-08T11:13:45.362Z,-0.19
2024-01-08T11:16:15.017Z,-0.14
2024-01-08T11:18:43.011Z,-0.08
2024-01-08T11:21:13.651Z,0.06
2024-01-08T11:23:43.707Z,0.21
2024-01-08T11:26:15.945Z,0.38
2024-01-08T11:28:43.851Z,0.41
2024-01-08T11:31:25.943Z,0.53
2024-01-08T11:34:15.523Z,0.61
2024-01-08T11:36:50.614Z,0.71
2024-01-08T11:39:19.979Z,0.58
2024-01-08T11:41:48.372Z,0.52
2024-01-08T11:44:16.440Z,0.51
2024-01-08T11:46:45.724Z,0.53
2024-01-08T11:49:13.792Z,0.53
2024-01-08T11:51:43.316Z,0.66
2024-01-08T11:54:14.934Z,0.76
2024-01-08T11:56:43.316Z,0.87
2024-01-08T11:59:11.525Z,0.94
2024-01-08T12:01:39.678Z,1.00
2024-01-08T12:04:08.004Z,1.21
2024-01-08T12:06:36.148Z,1.44
2024-01-08T12:09:04.336Z,1.52
2024-01-08T12:11:32.225Z,1.62
2024-01-08T12:14:00.195Z,1.68
2024-01-08T12:16:28.870Z,1.52
2024-01-08T12:18:56.881Z,1.35
2024-01-08T12:21:28.290Z,1.35
2024-01-08T12:23:58.576Z,1.39
2024-01-08T12:26:28.354Z,1.40
2024-01-08T12:28:56.546Z,1.50
2024-01-08T12:31:27.634Z,1.57
2024-01-08T12:33:58.337Z,1.59
2024-01-08T12:36:26.323Z,1.47
2024-01-08T12:38:54.181Z,1.47
2024-01-08T12:41:22.068Z,1.41
2024-01-08T12:43:49.963Z,1.36
2024-01-08T12:46:17.861Z,1.29
2024-01-08T12:48:46.023Z,1.28
2024-01-08T12:51:14.029Z,1.29
2024-01-08T12:53:42.014Z,1.34
2024-01-08T12:56:10.616Z,1.48
2024-01-08T12:58:38.604Z,1.56
2024-01-08T13:01:06.485Z,1.67
2024-01-08T13:03:34.901Z,1.72
2024-01-08T13:06:02.849Z,1.74
2024-01-08T13:08:31.937Z,1.71
2024-01-08T13:10:59.923Z,1.69
2024-01-08T13:13:27.984Z,1.68
2024-01-08T13:15:55.809Z,1.66
2024-01-08T13:18:24.328Z,1.67
2024-01-08T13:20:52.298Z,1.71
2024-01-08T13:23:20.210Z,1.61
2024-01-08T13:25:48.215Z,1.66
2024-01-08T13:28:16.060Z,1.61
2024-01-08T13:30:44.269Z,1.62
2024-01-08T13:33:12.407Z,1.70
2024-01-08T13:35:40.328Z,1.89
2024-01-08T13:38:08.300Z,1.92
2024-01-08T13:40:36.140Z,2.09
2024-01-08T13:43:05.100Z,2.24
2024-01-08T13:45:32.946Z,2.28
2024-01-08T13:48:01.077Z,2.33
2024-01-08T13:50:31.875Z,2.20
2024-01-08T13:52:59.894Z,2.09
2024-01-08T13:55:27.708Z,1.91
2024-01-08T13:57:56.044Z,2.01
2024-01-08T14:00:23.977Z,2.07
2024-01-08T14:02:54.070Z,2.12
2024-01-08T14:05:22.338Z,2.20
2024-01-08T14:07:50.342Z,2.27
2024-01-08T14:10:18.437Z,2.40
2024-01-08T14:12:46.291Z,2.37
2024-01-08T14:15:14.526Z,2.22
2024-01-08T14:17:42.830Z,2.16
2024-01-08T14:20:18.484Z,1.95
2024-01-08T14:22:48.848Z,1.75
2024-01-08T14:25:17.718Z,1.80
2024-01-08T14:27:45.623Z,1.84
2024-01-08T14:30:13.979Z,1.55
2024-01-08T14:32:43.688Z,1.14
2024-01-08T14:35:12.219Z,0.61
2024-01-08T14:37:44.058Z,0.07
2024-01-08T14:40:12.508Z,-0.40
2024-01-08T14:42:40.497Z,-0.69
2024-01-08T14:45:09.066Z,-0.88
2024-01-08T14:47:36.930Z,-1.26
2024-01-08T14:50:07.460Z,-1.56
2024-01-08T14:52:35.461Z,-1.89
2024-01-08T14:55:03.546Z,-2.12
2024-01-08T14:57:32.674Z,-2.38
2024-01-08T15:00:01.315Z,-2.65
2024-01-08T15:02:32.235Z,-3.00
2024-01-08T15:05:00.159Z,-3.22
2024-01-08T15:07:28.419Z,-3.32
2024-01-08T15:09:58.819Z,-3.41
2024-01-08T15:12:26.631Z,-3.66
2024-01-08T15:14:54.483Z,-3.88
2024-01-08T15:17:22.896Z,-4.08
2024-01-08T15:19:51.047Z,-4.34
2024-01-08T15:22:18.976Z,-4.45
2024-01-08T15:24:46.983Z,-4.54
2024-01-08T15:27:14.893Z,-4.64
2024-01-08T15:29:42.820Z,-4.75
2024-01-08T15:32:10.780Z,-4.85
2024-01-08T15:34:39.325Z,-4.92
2024-01-08T15:37:07.205Z,-4.86
2024-01-08T15:39:35.154Z,-4.75
2024-01-08T15:42:03.090Z,-4.72
2024-01-08T15:44:31.051Z,-4.64
2024-01-08T15:46:59.790Z,-4.57
2024-01-08T15:49:27.924Z,-4.58
2024-01-08T15:51:55.873Z,-4.58
2024-01-08T15:54:24.983Z,-4.58
2024-01-08T15:56:53.085Z,-4.57
2024-01-08T15:59:21.249Z,-4.55
2024-01-08T16:01:49.159Z,-4.55
2024-01-08T16:04:17.278Z,-4.49
2024-01-08T16:06:48.272Z,-4.47
2024-01-08T16:09:18.208Z,-4.49
2024-01-08T16:11:46.242Z,-4.43
2024-01-08T16:14:14.164Z,-4.38
2024-01-08T16:16:42.143Z,-4.35
2024-01-08T16:19:10.217Z,-4.33
2024-01-08T16:21:38.178Z,-4.29
2024-01-08T16:24:12.900Z,-4.25
2024-01-08T16:26:43.519Z,-4.24
2024-01-08T16:29:12.622Z,-4.32
2024-01-08T16:31:41.525Z,-4.39
2024-01-08T16:34:09.599Z,-4.45
2024-01-08T16:36:39.148Z,-4.51
2024-01-08T16:39:10.501Z,-4.62
2024-01-08T16:41:38.353Z,-4.73
2024-01-08T16:44:06.387Z,-4.82
2024-01-08T16:46:34.405Z,-4.92
2024-01-08T16:49:03.050Z,-5.01
2024-01-08T16:51:30.951Z,-5.02
2024-01-08T16:54:03.265Z,-4.95
2024-01-08T16:56:33.229Z,-4.95
2024-01-08T16:59:01.220Z,-4.91
2024-01-08T17:01:34.632Z,-4.96
2024-01-08T17:04:04.811Z,-4.98
2024-01-08T17:06:32.929Z,-4.90
2024-01-08T17:09:04.810Z,-4.83
2024-01-08T17:11:32.822Z,-4.78
2024-01-08T17:14:00.819Z,-4.73
2024-01-08T17:16:28.730Z,-4.75
2024-01-08T17:18:57.163Z,-4.81
2024-01-08T17:21:25.167Z,-4.82
2024-01-08T17:23:52.972Z,-4.86
2024-01-08T17:26:21.154Z,-4.89
2024-01-08T17:28:49.321Z,-4.85
2024-01-08T17:31:17.218Z,-4.84
2024-01-08T17:33:45.380Z,-4.79
2024-01-08T17:36:13.575Z,-4.76
2024-01-08T17:38:41.875Z,-4.82
2024-01-08T17:41:10.130Z,-4.80
2024-01-08T17:43:38.014Z,-4.76
2024-01-08T17:46:06.868Z,-4.74
2024-01-08T17:48:34.867Z,-4.74
2024-01-08T17:51:03.220Z,-4.72
2024-01-08T17:53:31.570Z,-4.71
2024-01-08T17:55:59.468Z,-4.70
2024-01-08T17:58:29.311Z,-4.73
2024-01-08T18:00:57.351Z,-4.78
2024-01-08T18:03:25.182Z,-4.84
2024-01-08T18:05:53.199Z,-4.85
2024-01-08T18:08:21.334Z,-4.90
2024-01-08T18:10:50.012Z,-4.97
2024-01-08T18:13:17.814Z,-5.06
2024-01-08T18:15:46.055Z,-5.11
2024-01-08T18:18:16.214Z,-5.17
2024-01-08T18:20:46.305Z,-5.28
2024-01-08T18:23:14.479Z,-5.38
2024-01-08T18:25:42.640Z,-5.43
2024-01-08T18:28:10.492Z,-5.47
2024-01-08T18:30:38.554Z,-5.42
2024-01-08T18:33:06.528Z,-5.39
2024-01-08T18:35:34.486Z,-5.42
2024-01-08T18:38:02.765Z,-5.43
2024-01-08T18:40:31.076Z,-5.43
2024-01-08T18:42:59.107Z,-5.46
2024-01-08T18:45:26.976Z,-5.47
2024-01-08T18:47:54.995Z,-5.55
2024-01-08T18:50:22.914Z,-5.57
2024-01-08T18:52:53.486Z,-5.55
2024-01-08T18:55:21.685Z,-5.52
2024-01-08T18:57:50.090Z,-5.49
2024-01-08T19:00:18.576Z,-5.52
2024-01-08T19:02:46.550Z,-5.60
2024-01-08T19:05:18.378Z,-5.69
2024-01-08T19:07:48.343Z,-5.78
2024-01-08T19:10:16.254Z,-5.84
2024-01-08T19:12:46.237Z,-5.84
2024-01-08T19:15:17.508Z,-5.83
2024-01-08T19:17:45.776Z,-5.87
2024-01-08T19:20:13.842Z,-5.86
2024-01-08T19:22:41.671Z,-5.77
2024-01-08T19:25:09.831Z,-5.71
2024-01-08T19:27:37.985Z,-5.71
2024-01-08T19:30:06.503Z,-5.74
2024-01-08T19:32:34.472Z,-5.71
2024-01-08T19:35:02.454Z,-5.64
2024-01-08T19:37:30.379Z,-5.62
2024-01-08T19:39:58.298Z,-5.64
2024-01-08T19:42:26.235Z,-5.59
2024-01-08T19:44:54.140Z,-5.61
2024-01-08T19:47:22.179Z,-5.66
2024-01-08T19:49:50.251Z,-5.80
2024-01-08T19:52:18.350Z,-5.91
2024-01-08T19:54:48.985Z,-6.00
2024-01-08T19:57:17.414Z,-6.06
2024-01-08T19:59:45.842Z,-6.11
2024-01-08T20:02:13.878Z,-6.19
2024-01-08T20:04:41.893Z,-6.22
2024-01-08T20:07:09.811Z,-6.20
2024-01-08T20:09:37.737Z,-6.12
2024-01-08T20:12:06.300Z,-6.01
2024-01-08T20:14:34.927Z,-5.95
2024-01-08T20:17:02.842Z,-5.89
2024-01-08T20:19:30.933Z,-5.87
2024-01-08T20:21:58.771Z,-5.89
2024-01-08T20:24:26.587Z,-5.99
2024-01-08T20:26:54.503Z,-6.08
2024-01-08T20:29:22.398Z,-6.15
2024-01-08T20:32:04.062Z,-6.22
2024-01-08T20:34:32.038Z,-6.32
2024-01-08T20:37:00.328Z,-6.34
2024-01-08T20:39:28.407Z,-6.36
2024-01-08T20:41:56.419Z,-6.36
2024-01-08T20:44:24.300Z,-6.34
2024-01-08T20:46:52.241Z,-6.34
2024-01-08T20:49:27.838Z,-6.41
2024-01-08T20:51:56.107Z,-6.40
2024-01-08T20:54:24.319Z,-6.44
2024-01-08T20:56:52.211Z,-6.45
2024-01-08T20:59:20.428Z,-6.38
2024-01-08T21:01:48.234Z,-6.26
2024-01-08T21:04:16.154Z,-6.14
2024-01-08T21:06:43.979Z,-6.03
2024-01-08T21:09:11.869Z,-5.98
2024-01-08T21:11:39.733Z,-6.01
2024-01-08T21:14:07.630Z,-6.08
2024-01-08T21:16:36.349Z,-6.16
2024-01-08T21:19:06.265Z,-6.18
2024-01-08T21:21:34.509Z,-6.16
2024-01-08T21:24:02.453Z,-6.15
2024-01-08T21:26:30.483Z,-6.23
2024-01-08T21:28:58.476Z,-6.35
2024-01-08T21:31:26.491Z,-6.47
2024-01-08T21:33:54.533Z,-6.51
2024-01-08T21:36:22.485Z,-6.49
2024-01-08T21:38:50.438Z,-6.47
2024-01-08T21:41:18.371Z,-6.39
2024-01-08T21:43:46.437Z,-6.27
2024-01-08T21:46:14.266Z,-6.19
2024-01-08T21:48:45.495Z,-6.14
2024-01-08T21:51:13.686Z,-6.07
2024-01-08T21:53:41.783Z,-6.04
2024-01-08T21:56:09.952Z,-6.02
2024-01-08T21:58:37.950Z,-6.01
2024-01-08T22:01:05.829Z,-5.99
2024-01-08T22:03:33.773Z,-5.98
2024-01-08T22:06:01.846Z,-6.05
2024-01-08T22:08:29.867Z,-6.09
2024-01-08T22:10:57.839Z,-6.09
2024-01-08T22:13:25.729Z,-6.13
2024-01-08T22:15:53.570Z,-6.24
2024-01-08T22:18:21.457Z,-6.31
2024-01-08T22:20:49.476Z,-6.37
2024-01-08T22:23:17.484Z,-6.45
2024-01-08T22:25:45.576Z,-6.50
2024-01-08T22:28:13.461Z,-6.51
2024-01-08T22:30:41.776Z,-6.52
2024-01-08T22:33:09.989Z,-6.53
2024-01-08T22:35:38.048Z,-6.62
2024-01-08T22:38:05.858Z,-6.63
2024-01-08T22:40:33.694Z,-6.56
2024-01-08T22:43:01.477Z,-6.49
2024-01-08T22:45:29.608Z,-6.44
2024-01-08T22:47:57.566Z,-6.52
2024-01-08T22:50:25.477Z,-6.59
2024-01-08T22:52:53.360Z,-6.54
2024-01-08T22:55:22.194Z,-6.54
2024-01-08T22:57:50.209Z,-6.61
2024-01-08T23:00:18.910Z,-6.69
2024-01-08T23:02:46.884Z,-6.75
2024-01-08T23:05:15.028Z,-6.79
2024-01-08T23:07:43.062Z,-6.72
2024-01-08T23:10:10.971Z,-6.65
2024-01-08T23:12:38.837Z,-6.60
2024-01-08T23:15:07.405Z,-6.47
2024-01-08T23:17:35.538Z,-6.30
2024-01-08T23:20:03.979Z,-6.21
2024-01-08T23:22:32.005Z,-6.12
2024-01-08T23:24:59.823Z,-6.11
2024-01-08T23:27:27.911Z,-6.14
2024-01-08T23:29:56.876Z,-6.06
2024-01-08T23:32:25.043Z,-6.00
2024-01-08T23:34:52.975Z,-5.87
2024-01-08T23:37:20.865Z,-5.92
2024-01-08T23:39:49.028Z,-6.04
2024-01-08T23:42:16.940Z,-6.13
2024-01-08T23:44:44.794Z,-6.16
2024-01-08T23:47:12.701Z,-6.27
2024-01-08T23:49:40.981Z,-6.40
2024-01-08T23:52:08.955Z,-6.59
2024-01-08T23:54:36.919Z,-6.82
2024-01-08T23:57:05.104Z,-6.95
2024-01-08T23:59:32.921Z,-7.08
